Time;durP1;ratioP1;P1;durP2;ratioP2;P2;SDS_P1;SDS_P2;PMS_P1;PMS_P2;Temp;Humidity;BMP_temperature;BMP_pressure;BME280_temperature;BME280_humidity;BME280_pressure;Samples;Min_cycle;Max_cycle;Signal;HPM_P1;HPM_P2
2022/02/09 00:00:53;;;;;;;;;;;24.10;45.00;;;;;;1586891;74;1230;-71
2022/02/09 00:03:02;;;;;;;;;;;24.10;45.00;;;;;;1579128;75;1060;-72
2022/02/09 00:09:01;;;;;;;;;;;24.20;45.00;;;;;;1575832;73;1119;-71
2022/02/09 00:11:05;;;;;;;;;;;24.20;45.00;;;;;;1588049;74;1899;-72
2022/02/09 00:15:32;;;;;;;;;;;24.10;45.00;;;;;;1582911;75;810;-71
2022/02/09 00:38:21;;;;;;;;;;;24.10;45.20;;;;;;1572726;73;1617;-72
2022/02/09 00:40:28;;;;;;;;;;;24.00;45.00;;;;;;1568302;75;1281;-72
2022/02/09 00:42:24;;;;;;;;;;;24.10;45.10;;;;;;1569036;75;1062;-71
2022/02/09 01:50:59;;;;;;;;;;;24.00;45.20;;;;;;1577454;75;1658;-71
2022/02/09 01:55:33;;;;;;;;;;;24.00;45.20;;;;;;1591289;74;1635;-72
2022/02/09 01:57:33;;;;;;;;;;;24.00;45.30;;;;;;1584039;74;1155;-73
2022/02/09 01:59:37;;;;;;;;;;;24.00;45.30;;;;;;1577075;75;716;-72
2022/02/09 02:01:38;;;;;;;;;;;24.00;45.40;;;;;;1578775;74;1607;-71
2022/02/09 02:03:40;;;;;;;;;;;24.00;45.30;;;;;;1587865;74;719;-71
2022/02/09 02:05:42;;;;;;;;;;;24.00;45.30;;;;;;1566186;74;942;-72
2022/02/09 02:07:53;;;;;;;;;;;24.00;45.30;;;;;;1579029;74;1092;-71
2022/02/09 02:10:00;;;;;;;;;;;24.10;45.50;;;;;;1564591;75;1119;-72
2022/02/09 02:12:05;;;;;;;;;;;24.00;45.30;;;;;;1577237;74;1922;-72
2022/02/09 02:14:13;;;;;;;;;;;24.00;45.30;;;;;;1578023;75;1048;-71
2022/02/09 02:16:17;;;;;;;;;;;24.10;45.50;;;;;;1575350;74;1057;-70
2022/02/09 02:18:08;;;;;;;;;;;24.00;45.30;;;;;;1574730;74;1141;-72
2022/02/09 02:20:24;;;;;;;;;;;24.10;45.50;;;;;;1592430;74;799;-72
2022/02/09 02:26:44;;;;;;;;;;;24.00;45.30;;;;;;1550712;74;949;-73
2022/02/09 02:28:54;;;;;;;;;;;24.00;45.30;;;;;;1583618;73;1162;-72
2022/02/09 02:31:45;;;;;;;;;;;24.00;45.30;;;;;;1566816;75;1920;-71
2022/02/09 02:37:53;;;;;;;;;;;24.00;45.30;;;;;;1593225;74;702;-72
2022/02/09 02:46:40;;;;;;;;;;;24.00;45.30;;;;;;1573620;75;1670;-71
2022/02/09 02:59:04;;;;;;;;;;;24.00;45.40;;;;;;1590248;74;1651;-69
2022/02/09 03:11:14;;;;;;;;;;;24.00;45.40;;;;;;1576587;75;1908;-72
2022/02/09 03:13:11;;;;;;;;;;;24.00;45.40;;;;;;1591700;73;1580;-73
2022/02/09 03:17:37;;;;;;;;;;;24.00;45.50;;;;;;1590148;75;1062;-73
2022/02/09 03:22:14;;;;;;;;;;;24.00;45.50;;;;;;1580947;73;671;-71
2022/02/09 03:24:01;;;;;;;;;;;24.00;45.50;;;;;;1651241;72;940;-73
2022/02/09 03:44:29;;;;;;;;;;;24.00;45.50;;;;;;1621926;73;1659;-69
2022/02/09 03:57:03;;;;;;;;;;;24.10;45.50;;;;;;1623904;73;849;-68
2022/02/09 03:59:05;;;;;;;;;;;24.10;45.50;;;;;;1620348;72;1128;-68
2022/02/09 04:01:08;;;;;;;;;;;24.10;45.50;;;;;;1616614;73;718;-69
2022/02/09 04:03:14;;;;;;;;;;;24.10;45.50;;;;;;1613699;73;716;-68
2022/02/09 04:05:14;;;;;;;;;;;24.00;45.30;;;;;;1616983;73;1607;-71
2022/02/09 04:07:16;;;;;;;;;;;24.10;45.50;;;;;;1621336;73;831;-68
2022/02/09 04:09:21;;;;;;;;;;;24.10;45.50;;;;;;1620451;72;1136;-65
2022/02/09 04:11:40;;;;;;;;;;;24.10;45.40;;;;;;1618302;73;1929;-68
2022/02/09 04:13:47;;;;;;;;;;;24.10;45.40;;;;;;1616379;73;1673;-70
2022/02/09 04:18:11;;;;;;;;;;;24.10;45.40;;;;;;1615066;73;863;-69
2022/02/09 04:20:29;;;;;;;;;;;24.10;45.40;;;;;;1612295;72;1633;-68
2022/02/09 04:23:04;;;;;;;;;;;24.10;45.40;;;;;;1607264;73;1654;-68
2022/02/09 04:36:30;;;;;;;;;;;24.20;45.20;;;;;;1606785;73;1669;-71
2022/02/09 04:38:48;;;;;;;;;;;24.20;45.20;;;;;;1615312;73;1664;-70
2022/02/09 04:44:10;;;;;;;;;;;24.20;45.20;;;;;;1620240;73;750;-73
2022/02/09 04:53:00;;;;;;;;;;;24.30;45.20;;;;;;1605902;73;1935;-69
2022/02/09 04:54:31;;;;;;;;;;;24.30;45.20;;;;;;1608589;73;1441;-74
2022/02/09 04:56:41;;;;;;;;;;;24.30;45.20;;;;;;1618733;73;1689;-69
2022/02/09 05:25:43;;;;;;;;;;;24.30;45.00;;;;;;1615072;73;913;-70
2022/02/09 05:27:51;;;;;;;;;;;24.40;45.00;;;;;;1605719;73;1641;-71
2022/02/09 05:29:51;;;;;;;;;;;24.50;45.00;;;;;;1622223;72;1662;-70
2022/02/09 05:31:53;;;;;;;;;;;24.40;45.00;;;;;;1618435;73;1929;-69
2022/02/09 05:33:55;;;;;;;;;;;24.40;45.00;;;;;;1621299;72;791;-70
2022/02/09 05:35:57;;;;;;;;;;;24.40;45.00;;;;;;1620193;73;686;-70
2022/02/09 05:37:59;;;;;;;;;;;24.50;45.00;;;;;;1617218;73;751;-72
2022/02/09 05:40:01;;;;;;;;;;;24.50;45.00;;;;;;1613649;72;1164;-70
2022/02/09 05:42:08;;;;;;;;;;;24.60;44.90;;;;;;1613474;73;730;-71
2022/02/09 05:44:07;;;;;;;;;;;24.50;44.90;;;;;;1616932;73;1573;-69
2022/02/09 05:50:48;;;;;;;;;;;24.60;44.90;;;;;;1612772;73;873;-69
2022/02/09 05:55:22;;;;;;;;;;;24.50;44.80;;;;;;1619222;73;1635;-70
2022/02/09 06:01:28;;;;;;;;;;;24.40;44.90;;;;;;1620273;73;852;-69
2022/02/09 06:03:30;;;;;;;;;;;24.50;45.00;;;;;;1619314;73;773;-70
2022/02/09 06:05:31;;;;;;;;;;;24.40;45.00;;;;;;1615208;73;762;-72
2022/02/09 06:07:33;;;;;;;;;;;24.40;45.00;;;;;;1604667;73;798;-69
2022/02/09 06:09:36;;;;;;;;;;;24.40;44.90;;;;;;1608823;72;1195;-71
2022/02/09 06:20:22;;;;;;;;;;;24.50;45.00;;;;;;1613515;72;1160;-70
2022/02/09 06:22:24;;;;;;;;;;;24.40;45.00;;;;;;1624975;73;698;-70
2022/02/09 06:24:26;;;;;;;;;;;24.50;45.00;;;;;;1620479;73;823;-70
2022/02/09 06:26:28;;;;;;;;;;;24.40;45.00;;;;;;1614478;73;730;-71
2022/02/09 06:28:30;;;;;;;;;;;24.30;45.10;;;;;;1615995;72;1148;-68
2022/02/09 06:30:32;;;;;;;;;;;24.40;45.00;;;;;;1620235;73;772;-70
2022/02/09 06:32:33;;;;;;;;;;;24.40;45.10;;;;;;1621519;73;1936;-70
2022/02/09 06:34:37;;;;;;;;;;;24.40;45.10;;;;;;1614179;73;696;-70
2022/02/09 06:36:43;;;;;;;;;;;24.40;45.10;;;;;;1613380;73;1077;-70
2022/02/09 06:38:43;;;;;;;;;;;24.30;45.10;;;;;;1615077;72;1204;-72
2022/02/09 06:40:46;;;;;;;;;;;24.30;45.10;;;;;;1615125;73;813;-69
2022/02/09 06:42:48;;;;;;;;;;;24.40;45.10;;;;;;1619377;73;662;-70
2022/02/09 06:44:50;;;;;;;;;;;24.30;45.10;;;;;;1615657;73;742;-71
2022/02/09 06:46:52;;;;;;;;;;;24.30;45.00;;;;;;1620095;73;753;-70
2022/02/09 06:48:55;;;;;;;;;;;24.40;45.00;;;;;;1619164;72;1180;-71
2022/02/09 06:51:03;;;;;;;;;;;24.30;45.00;;;;;;1613803;73;803;-82
2022/02/09 06:53:12;;;;;;;;;;;24.30;45.00;;;;;;1615097;73;1924;-70
2022/02/09 06:57:25;;;;;;;;;;;24.30;45.00;;;;;;1621091;73;694;-72
2022/02/09 06:59:38;;;;;;;;;;;24.30;45.00;;;;;;1617949;72;1604;-71
2022/02/09 07:01:36;;;;;;;;;;;24.30;45.00;;;;;;1619845;73;1520;-74
2022/02/09 07:03:38;;;;;;;;;;;24.20;44.80;;;;;;1620168;73;805;-71
2022/02/09 07:05:40;;;;;;;;;;;24.20;44.80;;;;;;1598649;73;776;-70
2022/02/09 07:07:42;;;;;;;;;;;24.20;44.80;;;;;;1619512;72;884;-70
2022/02/09 07:09:44;;;;;;;;;;;24.20;44.80;;;;;;1615237;72;1180;-70
2022/02/09 07:11:46;;;;;;;;;;;24.20;44.70;;;;;;1613689;73;1947;-73
2022/02/09 07:13:48;;;;;;;;;;;24.20;44.70;;;;;;1613289;73;723;-72
2022/02/09 07:15:53;;;;;;;;;;;24.20;44.70;;;;;;1613635;73;715;-71
2022/02/09 07:17:54;;;;;;;;;;;24.20;44.70;;;;;;1613792;73;1750;-71
2022/02/09 07:20:09;;;;;;;;;;;24.20;44.60;;;;;;1613141;72;1166;-72
2022/02/09 07:21:59;;;;;;;;;;;24.20;44.40;;;;;;1612348;73;1099;-73
2022/02/09 07:24:03;;;;;;;;;;;24.20;44.00;;;;;;1615673;73;742;-73
2022/02/09 07:26:09;;;;;;;;;;;24.10;43.60;;;;;;1613745;73;790;-74
2022/02/09 07:28:08;;;;;;;;;;;24.10;43.10;;;;;;1613129;73;1630;-74
2022/02/09 07:30:10;;;;;;;;;;;24.00;42.40;;;;;;1616958;72;1091;-74
2022/02/09 07:32:12;;;;;;;;;;;23.90;42.10;;;;;;1616876;73;1936;-72
2022/02/09 07:34:14;;;;;;;;;;;23.90;41.90;;;;;;1616302;73;749;-73
2022/02/09 07:36:16;;;;;;;;;;;23.90;41.80;;;;;;1610169;73;784;-73
2022/02/09 07:38:18;;;;;;;;;;;23.90;41.50;;;;;;1611079;73;794;-72
2022/02/09 07:40:20;;;;;;;;;;;23.90;41.30;;;;;;1617327;72;1120;-75
2022/02/09 07:42:26;;;;;;;;;;;23.90;41.20;;;;;;1615792;73;782;-74
2022/02/09 07:44:52;;;;;;;;;;;23.80;40.70;;;;;;1613450;73;1129;-74
2022/02/09 07:48:54;;;;;;;;;;;23.70;40.00;;;;;;1615453;72;1137;-73
2022/02/09 07:50:48;;;;;;;;;;;23.80;39.90;;;;;;1616014;73;1729;-73
2022/02/09 07:52:52;;;;;;;;;;;23.70;39.80;;;;;;1617145;72;1921;-73
2022/02/09 07:54:54;;;;;;;;;;;23.70;39.80;;;;;;1616509;72;1578;-72
2022/02/09 07:56:55;;;;;;;;;;;23.60;39.60;;;;;;1612057;72;1597;-72
2022/02/09 07:58:57;;;;;;;;;;;23.60;39.60;;;;;;1617331;72;1149;-74
2022/02/09 08:00:59;;;;;;;;;;;23.60;39.50;;;;;;1617517;73;723;-73
2022/02/09 08:03:01;;;;;;;;;;;23.60;39.30;;;;;;1617440;73;714;-73
2022/02/09 08:05:03;;;;;;;;;;;23.60;39.20;;;;;;1614736;73;705;-73
2022/02/09 08:07:05;;;;;;;;;;;23.60;39.20;;;;;;1616074;73;752;-73
2022/02/09 08:09:18;;;;;;;;;;;23.50;39.00;;;;;;1614950;72;1133;-73
2022/02/09 08:11:16;;;;;;;;;;;23.50;38.80;;;;;;1616022;73;1532;-74
2022/02/09 08:29:24;;;;;;;;;;;23.40;37.40;;;;;;1623950;72;1625;-75
2022/02/09 08:31:44;;;;;;;;;;;23.40;37.30;;;;;;1619932;73;1688;-73
2022/02/09 08:33:26;;;;;;;;;;;23.40;37.30;;;;;;1619399;72;1935;-74
2022/02/09 08:35:28;;;;;;;;;;;23.40;37.40;;;;;;1616012;73;764;-73
2022/02/09 08:37:30;;;;;;;;;;;23.40;37.50;;;;;;1616507;73;748;-75
2022/02/09 08:39:32;;;;;;;;;;;23.40;37.50;;;;;;1620070;72;1165;-73
2022/02/09 08:41:34;;;;;;;;;;;23.50;37.50;;;;;;1617073;73;709;-73
2022/02/09 08:43:37;;;;;;;;;;;23.50;37.60;;;;;;1613898;73;750;-73
2022/02/09 08:45:42;;;;;;;;;;;23.60;37.60;;;;;;1617315;73;750;-73
2022/02/09 08:47:44;;;;;;;;;;;23.60;37.70;;;;;;1594056;73;800;-73
2022/02/09 08:49:46;;;;;;;;;;;23.60;37.50;;;;;;1615395;72;1121;-72
2022/02/09 08:51:47;;;;;;;;;;;23.70;37.60;;;;;;1620373;73;784;-72
2022/02/09 08:53:49;;;;;;;;;;;23.70;37.30;;;;;;1619428;72;1918;-74
2022/02/09 08:55:51;;;;;;;;;;;23.70;37.60;;;;;;1603362;73;930;-73
2022/02/09 08:57:53;;;;;;;;;;;23.80;37.50;;;;;;1615212;73;804;-73
2022/02/09 08:59:55;;;;;;;;;;;23.80;37.30;;;;;;1620195;72;1101;-73
2022/02/09 09:02:02;;;;;;;;;;;23.80;37.30;;;;;;1620082;72;696;-73
2022/02/09 09:04:08;;;;;;;;;;;23.80;37.30;;;;;;1622840;72;1574;-72
2022/02/09 09:06:05;;;;;;;;;;;23.80;37.10;;;;;;1616122;73;1618;-73
2022/02/09 09:08:48;;;;;;;;;;;23.90;37.10;;;;;;1617902;73;758;-73
2022/02/09 09:10:26;;;;;;;;;;;23.90;37.00;;;;;;1609513;73;1377;-73
2022/02/09 09:15:46;;;;;;;;;;;23.90;37.10;;;;;;1603345;73;1651;-73
2022/02/09 09:24:59;;;;;;;;;;;23.90;36.90;;;;;;1610239;73;1134;-73
2022/02/09 09:58:22;;;;;;;;;;;24.40;36.50;;;;;;1607938;73;1669;-72
2022/02/09 10:02:50;;;;;;;;;;;24.50;36.60;;;;;;1620248;73;881;-71
2022/02/09 10:33:04;;;;;;;;;;;24.50;37.30;;;;;;1612141;73;1912;-71
2022/02/09 10:35:20;;;;;;;;;;;24.50;37.30;;;;;;1614960;73;1053;-72
2022/02/09 10:37:16;;;;;;;;;;;24.60;37.30;;;;;;1613490;73;1610;-73
2022/02/09 10:39:22;;;;;;;;;;;24.70;37.50;;;;;;1594698;73;1204;-75
2022/02/09 10:41:29;;;;;;;;;;;24.70;37.50;;;;;;1615970;73;1128;-71
2022/02/09 10:43:35;;;;;;;;;;;24.70;37.40;;;;;;1614817;73;1644;-75
2022/02/09 10:45:36;;;;;;;;;;;24.70;37.50;;;;;;1616863;73;1613;-73
2022/02/09 10:47:37;;;;;;;;;;;24.80;37.30;;;;;;1616213;73;1672;-74
2022/02/09 10:49:39;;;;;;;;;;;24.80;37.30;;;;;;1609493;72;1117;-71
2022/02/09 10:51:48;;;;;;;;;;;24.80;37.30;;;;;;1613028;73;755;-73
2022/02/09 10:53:46;;;;;;;;;;;24.80;37.40;;;;;;1613055;73;1932;-71
2022/02/09 10:55:48;;;;;;;;;;;24.90;37.50;;;;;;1600635;73;1441;-72
2022/02/09 10:57:50;;;;;;;;;;;24.80;37.40;;;;;;1620649;73;738;-75
2022/02/09 10:59:52;;;;;;;;;;;24.90;37.60;;;;;;1613903;72;1119;-71
2022/02/09 11:01:54;;;;;;;;;;;24.90;37.60;;;;;;1615993;73;671;-72
2022/02/09 11:03:57;;;;;;;;;;;24.90;37.70;;;;;;1619478;73;731;-71
2022/02/09 11:05:59;;;;;;;;;;;24.90;37.70;;;;;;1615011;73;763;-71
2022/02/09 11:08:00;;;;;;;;;;;24.90;37.80;;;;;;1617984;73;770;-71
2022/02/09 11:10:03;;;;;;;;;;;25.00;37.80;;;;;;1616480;73;1120;-72
2022/02/09 11:12:05;;;;;;;;;;;25.00;37.70;;;;;;1618835;73;678;-71
2022/02/09 11:14:07;;;;;;;;;;;24.90;37.80;;;;;;1617943;73;1933;-71
2022/02/09 11:16:09;;;;;;;;;;;25.00;37.70;;;;;;1616931;73;761;-71
2022/02/09 11:18:14;;;;;;;;;;;24.90;37.70;;;;;;1617898;73;727;-72
2022/02/09 11:20:15;;;;;;;;;;;25.00;37.70;;;;;;1616631;72;1780;-71
2022/02/09 11:22:22;;;;;;;;;;;25.00;37.80;;;;;;1620408;73;796;-72
2022/02/09 11:24:25;;;;;;;;;;;25.00;37.70;;;;;;1615120;73;1653;-71
2022/02/09 11:29:23;;;;;;;;;;;24.90;37.90;;;;;;1615628;73;1092;-73
2022/02/09 11:31:23;;;;;;;;;;;25.00;37.90;;;;;;1616010;72;1616;-70
2022/02/09 11:33:27;;;;;;;;;;;24.90;38.00;;;;;;1614350;73;1921;-71
2022/02/09 11:35:30;;;;;;;;;;;24.90;38.00;;;;;;1623757;73;1620;-73
2022/02/09 11:40:01;;;;;;;;;;;25.00;38.10;;;;;;1610433;73;1213;-73
2022/02/09 11:42:10;;;;;;;;;;;24.90;38.20;;;;;;1620089;72;1675;-70
2022/02/09 11:44:18;;;;;;;;;;;25.00;38.20;;;;;;1604026;73;1989;-70
2022/02/09 11:46:27;;;;;;;;;;;24.90;38.30;;;;;;1614486;73;1596;-72
2022/02/09 11:51:10;;;;;;;;;;;25.00;38.40;;;;;;1620376;73;737;-70
2022/02/09 11:59:48;;;;;;;;;;;25.00;38.50;;;;;;1620178;72;1094;-71
2022/02/09 12:01:53;;;;;;;;;;;25.00;38.50;;;;;;1615119;73;1465;-71
2022/02/09 12:10:48;;;;;;;;;;;25.00;38.70;;;;;;1613836;73;1647;-71
2022/02/09 12:12:50;;;;;;;;;;;24.90;38.70;;;;;;1618995;73;1584;-71
2022/02/09 12:14:59;;;;;;;;;;;24.90;38.70;;;;;;1620091;72;2132;-70
2022/02/09 12:17:28;;;;;;;;;;;25.00;38.80;;;;;;1613222;72;1496;-71
2022/02/09 12:19:28;;;;;;;;;;;25.00;38.80;;;;;;1610547;73;1651;-71
2022/02/09 12:21:49;;;;;;;;;;;25.00;38.80;;;;;;1620131;73;1696;-74
2022/02/09 12:23:45;;;;;;;;;;;25.00;38.90;;;;;;1620165;73;1608;-71
2022/02/09 12:25:49;;;;;;;;;;;24.90;38.90;;;;;;1619735;73;1635;-76
2022/02/09 12:27:50;;;;;;;;;;;25.00;38.90;;;;;;1619793;73;800;-72
2022/02/09 12:29:59;;;;;;;;;;;25.10;38.90;;;;;;1620331;72;1092;-73
2022/02/09 12:32:02;;;;;;;;;;;25.00;38.90;;;;;;1620165;72;729;-75
2022/02/09 12:34:04;;;;;;;;;;;25.10;38.90;;;;;;1622348;73;1935;-71
2022/02/09 12:36:11;;;;;;;;;;;25.00;38.90;;;;;;1616020;73;643;-72
2022/02/09 12:38:13;;;;;;;;;;;25.00;38.90;;;;;;1621778;73;727;-71
2022/02/09 12:40:17;;;;;;;;;;;25.00;38.90;;;;;;1620330;72;1070;-72
2022/02/09 12:42:22;;;;;;;;;;;25.10;38.90;;;;;;1622365;72;766;-72
2022/02/09 12:44:24;;;;;;;;;;;25.00;38.90;;;;;;1614596;73;719;-73
2022/02/09 12:46:26;;;;;;;;;;;25.00;38.90;;;;;;1619936;73;737;-72
2022/02/09 12:48:28;;;;;;;;;;;25.00;38.90;;;;;;1622910;72;1143;-74
2022/02/09 12:50:33;;;;;;;;;;;25.00;39.00;;;;;;1620224;73;739;-71
2022/02/09 12:52:35;;;;;;;;;;;25.00;39.00;;;;;;1616164;73;755;-71
2022/02/09 12:54:38;;;;;;;;;;;25.00;39.00;;;;;;1617716;73;1910;-73
2022/02/09 12:56:41;;;;;;;;;;;25.00;39.00;;;;;;1625916;73;722;-75
2022/02/09 12:58:43;;;;;;;;;;;25.00;39.10;;;;;;1615365;72;1595;-73
2022/02/09 13:00:45;;;;;;;;;;;25.00;39.10;;;;;;1616815;73;770;-74
2022/02/09 13:02:47;;;;;;;;;;;25.00;39.10;;;;;;1622028;73;805;-73
2022/02/09 13:04:50;;;;;;;;;;;25.10;39.10;;;;;;1619158;73;780;-74
2022/02/09 13:06:51;;;;;;;;;;;25.10;39.10;;;;;;1591180;73;1553;-72
2022/02/09 13:08:53;;;;;;;;;;;25.00;39.10;;;;;;1621709;72;1114;-74
2022/02/09 13:11:04;;;;;;;;;;;25.00;39.10;;;;;;1617524;73;662;-71
2022/02/09 13:13:12;;;;;;;;;;;25.00;39.10;;;;;;1609031;73;1580;-72
2022/02/09 13:15:18;;;;;;;;;;;25.10;39.10;;;;;;1621740;72;1909;-72
2022/02/09 13:17:39;;;;;;;;;;;25.00;39.20;;;;;;1618977;73;1778;-71
2022/02/09 14:05:49;;;;;;;;;;;24.90;40.00;;;;;;1620068;73;1653;-72
2022/02/09 14:54:37;;;;;;;;;;;25.10;39.90;;;;;;1618224;73;1900;-71
2022/02/09 14:58:56;;;;;;;;;;;25.00;40.00;;;;;;1621212;72;1212;-73
2022/02/09 15:03:20;;;;;;;;;;;25.00;39.90;;;;;;1620163;73;749;-70
2022/02/09 15:10:06;;;;;;;;;;;25.00;39.90;;;;;;1615031;72;1141;-71
2022/02/09 15:13:36;;;;;;;;;;;25.00;40.00;;;;;;1614518;73;773;-70
2022/02/09 15:18:12;;;;;;;;;;;25.00;40.00;;;;;;1619713;73;872;-70
2022/02/09 15:20:23;;;;;;;;;;;25.00;40.00;;;;;;1609399;72;1737;-69
2022/02/09 15:22:11;;;;;;;;;;;25.00;40.10;;;;;;1615974;73;1748;-70
2022/02/09 15:24:13;;;;;;;;;;;25.10;40.00;;;;;;1617568;73;1701;-72
2022/02/09 15:26:17;;;;;;;;;;;25.00;40.00;;;;;;1617435;73;805;-70
2022/02/09 15:28:19;;;;;;;;;;;25.00;40.00;;;;;;1615599;73;859;-69
2022/02/09 15:30:21;;;;;;;;;;;25.10;40.10;;;;;;1618288;72;1089;-70
2022/02/09 15:32:31;;;;;;;;;;;25.00;40.10;;;;;;1615305;73;694;-69
2022/02/09 15:34:38;;;;;;;;;;;25.10;40.20;;;;;;1620276;73;1916;-70
2022/02/09 15:38:55;;;;;;;;;;;25.00;40.20;;;;;;1606397;72;1641;-70
2022/02/09 15:41:14;;;;;;;;;;;25.00;40.20;;;;;;1618243;73;743;-70
2022/02/09 15:57:22;;;;;;;;;;;25.00;40.30;;;;;;1604550;73;1661;-70
2022/02/09 15:59:25;;;;;;;;;;;24.90;40.30;;;;;;1613914;72;1428;-70
2022/02/09 16:06:11;;;;;;;;;;;25.00;40.40;;;;;;1609516;73;1649;-70
2022/02/09 16:18:19;;;;;;;;;;;24.90;40.50;;;;;;1620207;73;1643;-73
2022/02/09 16:23:53;;;;;;;;;;;24.90;40.60;;;;;;1620245;73;697;-72
2022/02/09 16:25:56;;;;;;;;;;;24.80;40.50;;;;;;1623980;72;1626;-69
2022/02/09 16:48:16;;;;;;;;;;;24.70;41.00;;;;;;1613226;73;1802;-69
2022/02/09 16:50:24;;;;;;;;;;;24.70;41.20;;;;;;1611595;72;1679;-79
2022/02/09 16:52:27;;;;;;;;;;;24.60;41.10;;;;;;1613563;73;1616;-69
2022/02/09 16:54:48;;;;;;;;;;;24.60;41.20;;;;;;1614354;73;1918;-69
2022/02/09 16:57:04;;;;;;;;;;;24.60;41.20;;;;;;1614619;72;1733;-69
2022/02/09 17:11:10;;;;;;;;;;;24.50;41.50;;;;;;1612747;73;1672;-69
2022/02/09 17:19:51;;;;;;;;;;;24.50;41.70;;;;;;1615406;72;1683;-69
2022/02/09 17:21:53;;;;;;;;;;;24.50;41.80;;;;;;1614687;73;788;-68
2022/02/09 17:23:57;;;;;;;;;;;24.50;41.80;;;;;;1614794;73;715;-69
2022/02/09 17:25:59;;;;;;;;;;;24.50;41.70;;;;;;1615493;73;783;-69
2022/02/09 17:28:01;;;;;;;;;;;24.50;41.80;;;;;;1615031;73;706;-69
2022/02/09 17:32:15;;;;;;;;;;;24.50;41.80;;;;;;1614925;73;875;-70
2022/02/09 17:38:47;;;;;;;;;;;24.50;41.80;;;;;;1613853;72;1095;-68
2022/02/09 17:56:50;;;;;;;;;;;24.50;41.80;;;;;;1614373;73;806;-69
2022/02/09 17:58:53;;;;;;;;;;;24.50;41.90;;;;;;1615470;72;1622;-72
2022/02/09 18:00:55;;;;;;;;;;;24.50;41.90;;;;;;1615739;73;780;-69
2022/02/09 18:02:56;;;;;;;;;;;24.50;41.90;;;;;;1616920;73;778;-69
2022/02/09 18:04:58;;;;;;;;;;;24.50;41.80;;;;;;1612132;73;703;-68
2022/02/09 18:07:06;;;;;;;;;;;24.50;41.80;;;;;;1616219;73;734;-70
2022/02/09 18:31:15;;;;;;;;;;;24.40;41.80;;;;;;1615454;73;840;-69
2022/02/09 18:38:02;;;;;;;;;;;24.50;41.90;;;;;;1618875;73;1616;-69
2022/02/09 18:44:25;;;;;;;;;;;24.50;41.90;;;;;;1615963;73;856;-69
2022/02/09 19:00:51;;;;;;;;;;;24.60;41.70;;;;;;1618958;73;1641;-70
2022/02/09 19:02:35;;;;;;;;;;;24.60;41.70;;;;;;1617690;73;1488;-71
2022/02/09 19:04:29;;;;;;;;;;;24.60;41.70;;;;;;1619165;73;1731;-70
2022/02/09 19:06:44;;;;;;;;;;;24.70;41.80;;;;;;1614656;73;1591;-69
2022/02/09 19:15:44;;;;;;;;;;;24.70;41.70;;;;;;1620627;73;1909;-69
2022/02/09 19:17:39;;;;;;;;;;;24.60;41.70;;;;;;1613123;73;1548;-69
2022/02/09 19:19:39;;;;;;;;;;;24.60;41.70;;;;;;1616522;72;1585;-71
2022/02/09 19:26:34;;;;;;;;;;;24.60;41.80;;;;;;1614084;73;1854;-80
2022/02/09 19:48:44;;;;;;;;;;;24.60;42.30;;;;;;1613866;74;860;-70
2022/02/09 19:52:47;;;;;;;;;;;24.60;42.60;;;;;;1613918;73;852;-71
2022/02/09 19:54:44;;;;;;;;;;;24.60;42.60;;;;;;1611046;73;1703;-70
2022/02/09 19:56:50;;;;;;;;;;;24.50;42.70;;;;;;1612704;73;1932;-70
2022/02/09 19:58:55;;;;;;;;;;;24.60;42.70;;;;;;1594790;73;1631;-70
2022/02/09 20:00:52;;;;;;;;;;;24.60;42.80;;;;;;1591100;74;1612;-72
2022/02/09 20:02:53;;;;;;;;;;;24.50;42.80;;;;;;1591871;74;1658;-70
2022/02/09 20:04:57;;;;;;;;;;;24.60;42.80;;;;;;1615199;73;782;-69
2022/02/09 20:06:58;;;;;;;;;;;24.50;42.90;;;;;;1617202;73;1685;-70
2022/02/09 20:09:00;;;;;;;;;;;24.60;42.90;;;;;;1613957;72;1133;-70
2022/02/09 20:11:03;;;;;;;;;;;24.60;42.90;;;;;;1613939;74;714;-70
2022/02/09 20:13:04;;;;;;;;;;;24.50;43.00;;;;;;1613777;74;540;-71
2022/02/09 20:15:13;;;;;;;;;;;24.60;42.80;;;;;;1616625;73;1910;-72
2022/02/09 20:17:11;;;;;;;;;;;24.50;42.90;;;;;;1619483;72;1804;-69
2022/02/09 20:19:13;;;;;;;;;;;24.60;43.00;;;;;;1622767;72;1137;-68
2022/02/09 20:21:16;;;;;;;;;;;24.60;42.90;;;;;;1613798;73;739;-69
2022/02/09 20:23:18;;;;;;;;;;;24.50;42.90;;;;;;1613833;74;703;-72
2022/02/09 20:25:21;;;;;;;;;;;24.50;43.00;;;;;;1613632;74;824;-69
2022/02/09 20:27:24;;;;;;;;;;;24.50;43.00;;;;;;1613781;73;778;-71
2022/02/09 20:29:28;;;;;;;;;;;24.50;43.00;;;;;;1613482;72;1188;-72
2022/02/09 20:31:43;;;;;;;;;;;24.50;43.10;;;;;;1613695;74;1668;-72
2022/02/09 20:33:45;;;;;;;;;;;24.50;43.10;;;;;;1610660;73;1453;-71
2022/02/09 20:35:42;;;;;;;;;;;24.50;43.20;;;;;;1612613;73;1938;-70
2022/02/09 20:37:52;;;;;;;;;;;24.50;43.10;;;;;;1593779;74;779;-70
2022/02/09 20:40:03;;;;;;;;;;;24.50;43.20;;;;;;1583911;74;1691;-71
2022/02/09 20:41:58;;;;;;;;;;;24.50;43.20;;;;;;1583244;75;1599;-70
2022/02/09 20:44:05;;;;;;;;;;;24.40;43.10;;;;;;1585987;75;739;-70
2022/02/09 20:46:06;;;;;;;;;;;24.40;43.10;;;;;;1609609;74;1745;-69
2022/02/09 20:48:13;;;;;;;;;;;24.50;43.20;;;;;;1613686;74;1650;-70
2022/02/09 20:50:11;;;;;;;;;;;24.50;43.30;;;;;;1595083;72;1594;-70
2022/02/09 20:52:15;;;;;;;;;;;24.40;43.20;;;;;;1585890;75;621;-71
2022/02/09 20:54:16;;;;;;;;;;;24.40;43.20;;;;;;1590354;73;1658;-71
2022/02/09 20:56:18;;;;;;;;;;;24.40;43.30;;;;;;1613692;74;1941;-69
2022/02/09 20:58:20;;;;;;;;;;;24.40;43.30;;;;;;1611183;74;799;-70
2022/02/09 21:00:30;;;;;;;;;;;24.40;43.40;;;;;;1613878;72;1082;-70
2022/02/09 21:04:31;;;;;;;;;;;24.40;43.40;;;;;;1613800;73;852;-70
2022/02/09 21:09:03;;;;;;;;;;;24.30;43.40;;;;;;1614701;72;1643;-69
2022/02/09 21:11:08;;;;;;;;;;;24.30;43.50;;;;;;1615064;73;1672;-69
2022/02/09 21:13:08;;;;;;;;;;;24.30;43.50;;;;;;1614286;73;1683;-69
2022/02/09 21:17:56;;;;;;;;;;;24.30;43.50;;;;;;1615004;73;1898;-70
2022/02/09 21:26:48;;;;;;;;;;;24.30;43.60;;;;;;1612523;73;1585;-70
2022/02/09 21:44:54;;;;;;;;;;;24.20;43.70;;;;;;1610307;73;859;-69
2022/02/09 21:53:56;;;;;;;;;;;24.20;43.70;;;;;;1612636;73;856;-69
2022/02/09 21:58:07;;;;;;;;;;;24.20;43.70;;;;;;1611812;73;857;-69
2022/02/09 22:16:42;;;;;;;;;;;24.10;43.90;;;;;;1613231;73;1916;-69
2022/02/09 22:23:32;;;;;;;;;;;24.20;43.80;;;;;;1613181;73;864;-69
2022/02/09 22:26:17;;;;;;;;;;;24.20;43.80;;;;;;1612926;73;1289;-68
2022/02/09 22:27:34;;;;;;;;;;;24.10;43.80;;;;;;1613714;72;1490;-69
2022/02/09 22:31:52;;;;;;;;;;;24.10;43.80;;;;;;1613636;73;729;-73
2022/02/09 22:56:30;;;;;;;;;;;24.10;43.90;;;;;;1575237;73;1932;-70
2022/02/09 22:58:32;;;;;;;;;;;24.10;43.90;;;;;;1612449;72;1228;-72
2022/02/09 23:00:45;;;;;;;;;;;24.10;43.90;;;;;;1613470;73;1079;-72
2022/02/09 23:02:48;;;;;;;;;;;24.10;43.90;;;;;;1613936;73;1609;-74
2022/02/09 23:11:42;;;;;;;;;;;24.10;44.00;;;;;;1613763;73;861;-69
2022/02/09 23:13:38;;;;;;;;;;;24.10;43.90;;;;;;1613922;72;1417;-73
2022/02/09 23:18:06;;;;;;;;;;;24.10;44.00;;;;;;1613567;73;1902;-69
2022/02/09 23:27:12;;;;;;;;;;;24.10;43.90;;;;;;1612012;73;859;-71
2022/02/09 23:56:59;;;;;;;;;;;24.10;44.20;;;;;;1596918;74;1907;-70
2022/02/09 23:58:48;;;;;;;;;;;24.00;44.10;;;;;;1604570;72;1466;-72
